Time;durP1;ratioP1;P1;durP2;ratioP2;P2;SDS_P1;SDS_P2;PMS_P1;PMS_P2;Temp;Humidity;BMP_temperature;BMP_pressure;BME280_temperature;BME280_humidity;BME280_pressure;Samples;Min_cycle;Max_cycle;Signal;HPM_P1;HPM_P2
2024/02/10 00:00:19;;;;;;;15.60;8.80;;;;;;;7.36;88.24;94331.17;106822;1275;23033;-80
2024/02/10 00:03:10;;;;;;;20.70;9.80;;;;;;;7.31;87.37;94336.39;106820;1275;22582;-80
2024/02/10 00:05:45;;;;;;;26.60;14.50;;;;;;;7.31;87.62;94338.67;106689;1275;22745;-81
2024/02/10 00:08:14;;;;;;;12.20;7.30;;;;;;;7.32;87.36;94344.05;106607;1259;24251;-80
2024/02/10 00:10:42;;;;;;;10.70;6.00;;;;;;;7.33;87.57;94346.48;106842;1275;22528;-80
2024/02/10 00:13:11;;;;;;;10.50;6.30;;;;;;;7.30;87.28;94351.09;106645;1275;23878;-80
2024/02/10 00:15:40;;;;;;;8.90;5.80;;;;;;;7.31;87.73;94349.86;106584;1265;22734;-81
2024/02/10 00:18:10;;;;;;;8.70;5.30;;;;;;;7.28;87.35;94356.76;107018;1275;22523;-81
2024/02/10 00:20:39;;;;;;;9.10;5.30;;;;;;;7.27;87.89;94358.89;106889;1275;22610;-80
2024/02/10 00:23:08;;;;;;;10.90;6.50;;;;;;;7.23;88.22;94363.36;106638;1274;25309;-81
2024/02/10 00:25:38;;;;;;;18.40;10.40;;;;;;;7.21;88.66;94368.14;106601;1275;22738;-81
2024/02/10 00:28:09;;;;;;;22.60;12.70;;;;;;;7.21;88.66;94371.11;106777;1275;22525;-81
2024/02/10 00:30:37;;;;;;;11.10;6.60;;;;;;;7.23;88.71;94366.85;106683;1275;22594;-81
2024/02/10 00:33:09;;;;;;;9.50;5.90;;;;;;;7.22;88.05;94362.67;106617;1275;23116;-81
2024/02/10 00:35:37;;;;;;;11.50;7.50;;;;;;;7.23;87.98;94361.25;107002;1275;22557;-81
2024/02/10 00:38:05;;;;;;;9.00;6.80;;;;;;;7.24;88.18;94360.70;106647;1275;23018;-81
2024/02/10 00:40:34;;;;;;;8.30;5.90;;;;;;;7.25;88.32;94359.29;106641;1275;23920;-81
2024/02/10 00:43:04;;;;;;;12.90;5.90;;;;;;;7.24;88.19;94359.48;106708;1275;22532;-81
2024/02/10 00:45:32;;;;;;;8.80;5.90;;;;;;;7.25;88.18;94360.70;106643;1275;22546;-82
2024/02/10 00:48:02;;;;;;;10.60;6.70;;;;;;;7.25;87.89;94363.65;106642;1275;25107;-81
2024/02/10 00:50:30;;;;;;;11.70;6.40;;;;;;;7.26;87.93;94363.98;106609;1275;25349;-81
2024/02/10 00:53:02;;;;;;;9.10;5.90;;;;;;;7.27;88.01;94359.41;106622;1275;23896;-81
2024/02/10 00:55:31;;;;;;;8.20;5.20;;;;;;;7.28;87.73;94355.70;106647;1275;22631;-81
2024/02/10 00:58:06;;;;;;;12.50;8.30;;;;;;;7.29;87.84;94355.70;106656;1275;22522;-81
2024/02/10 01:00:36;;;;;;;23.40;14.10;;;;;;;7.25;88.55;94353.35;106654;1275;22534;-81
2024/02/10 01:03:13;;;;;;;29.50;17.90;;;;;;;7.21;88.92;94347.14;106672;1265;22639;-81
2024/02/10 01:05:41;;;;;;;20.50;11.20;;;;;;;7.19;89.36;94346.52;106787;1275;22653;-81
2024/02/10 01:08:10;;;;;;;8.70;7.30;;;;;;;7.17;89.08;94340.41;106613;1275;22652;-81
2024/02/10 01:10:38;;;;;;;15.50;6.60;;;;;;;7.16;89.07;94343.94;106642;1275;25505;-81
2024/02/10 01:13:06;;;;;;;21.50;13.10;;;;;;;7.10;89.40;94347.42;106621;1275;22520;-81
2024/02/10 01:15:35;;;;;;;22.80;14.60;;;;;;;7.05;89.74;94343.88;106640;1275;22641;-80
2024/02/10 01:18:03;;;;;;;17.80;10.70;;;;;;;7.07;89.36;94340.15;106615;1275;25514;-81
2024/02/10 01:20:32;;;;;;;18.30;10.10;;;;;;;7.07;89.14;94343.65;106661;1275;23149;-81
2024/02/10 01:23:00;;;;;;;14.50;7.10;;;;;;;7.07;89.25;94341.54;106698;1275;22517;-81
2024/02/10 01:25:30;;;;;;;8.40;5.50;;;;;;;7.11;89.63;94337.06;106632;1275;22532;-81
2024/02/10 01:28:01;;;;;;;12.90;7.80;;;;;;;7.10;89.24;94334.65;106658;1275;25379;-81
2024/02/10 01:30:30;;;;;;;19.00;10.90;;;;;;;7.09;90.34;94334.67;106673;1275;22512;-81
2024/02/10 01:32:58;;;;;;;16.20;9.70;;;;;;;7.08;89.70;94331.55;106615;1275;22537;-81
2024/02/10 01:35:28;;;;;;;14.60;10.00;;;;;;;7.09;89.55;94329.95;106629;1275;22523;-81
2024/02/10 01:37:56;;;;;;;14.70;8.10;;;;;;;7.06;89.34;94328.46;106651;1275;22531;-81
2024/02/10 01:40:25;;;;;;;17.30;10.00;;;;;;;7.09;89.32;94322.98;106583;1275;22529;-81
2024/02/10 01:42:55;;;;;;;8.80;6.20;;;;;;;7.11;89.59;94319.92;106618;1275;23044;-81
2024/02/10 01:45:23;;;;;;;8.80;6.10;;;;;;;7.08;89.18;94322.48;106727;1275;25435;-81
2024/02/10 01:47:51;;;;;;;9.10;5.90;;;;;;;7.06;89.63;94320.23;106654;1275;26723;-81
2024/02/10 01:50:20;;;;;;;13.80;8.30;;;;;;;7.08;89.59;94321.41;106556;1275;24563;-81
2024/02/10 01:52:48;;;;;;;11.40;6.90;;;;;;;7.10;89.41;94318.40;106613;1275;22637;-81
2024/02/10 01:55:18;;;;;;;17.90;9.00;;;;;;;7.08;89.32;94320.89;106600;1253;25526;-81
2024/02/10 01:57:54;;;;;;;11.90;8.40;;;;;;;7.04;90.04;94320.46;106653;1275;22658;-80
2024/02/10 02:00:25;;;;;;;17.30;11.00;;;;;;;7.05;90.01;94319.56;106635;1275;22527;-81
2024/02/10 02:02:59;;;;;;;16.50;11.00;;;;;;;7.06;89.88;94319.54;106612;1275;24292;-81
2024/02/10 02:05:32;;;;;;;18.30;12.40;;;;;;;7.04;90.01;94316.45;106648;1275;26558;-81
2024/02/10 02:08:04;;;;;;;18.90;12.00;;;;;;;7.04;90.13;94318.39;106622;1275;22527;-81
2024/02/10 02:10:33;;;;;;;13.90;9.90;;;;;;;7.04;90.11;94323.63;106630;1272;22627;-80
2024/02/10 02:13:03;;;;;;;15.40;10.60;;;;;;;7.01;89.71;94324.77;106573;1276;24476;-81
2024/02/10 02:15:32;;;;;;;16.20;9.70;;;;;;;7.02;89.67;94323.13;106658;1255;24316;-81
2024/02/10 02:18:00;;;;;;;16.80;9.80;;;;;;;7.04;89.96;94326.93;106677;1276;22529;-81
2024/02/10 02:20:29;;;;;;;15.00;10.00;;;;;;;6.99;90.00;94328.11;106650;1276;25382;-81
2024/02/10 02:23:00;;;;;;;13.60;9.40;;;;;;;6.95;90.11;94324.36;106637;1276;22536;-81
2024/02/10 02:25:30;;;;;;;14.80;9.00;;;;;;;6.90;89.95;94323.42;106672;1276;26670;-81
2024/02/10 02:27:58;;;;;;;11.50;8.30;;;;;;;6.88;90.24;94327.14;106686;1276;25346;-81
2024/02/10 02:30:27;;;;;;;13.90;9.40;;;;;;;6.86;91.11;94325.63;106572;1276;22556;-81
2024/02/10 02:32:56;;;;;;;12.50;8.20;;;;;;;6.85;91.18;94329.51;106714;1276;24212;-81
2024/02/10 02:35:25;;;;;;;12.60;6.90;;;;;;;6.86;91.06;94331.06;106611;1276;23020;-81
2024/02/10 02:37:55;;;;;;;11.10;6.80;;;;;;;6.84;90.49;94335.63;106658;1276;25499;-81
2024/02/10 02:40:25;;;;;;;9.90;7.20;;;;;;;6.79;90.13;94334.71;106478;1276;24298;-81
2024/02/10 02:42:55;;;;;;;10.20;7.00;;;;;;;6.79;90.72;94340.46;106697;1276;24262;-80
2024/02/10 02:45:24;;;;;;;11.70;7.20;;;;;;;6.80;91.01;94338.88;106571;1276;22937;-80
2024/02/10 02:47:52;;;;;;;10.00;7.00;;;;;;;6.79;90.82;94346.07;106670;1276;25252;-80
2024/02/10 02:50:24;;;;;;;8.40;5.90;;;;;;;6.74;90.85;94346.02;106579;1276;25503;-80
2024/02/10 02:52:54;;;;;;;11.60;6.60;;;;;;;6.70;90.92;94345.08;106599;1276;24719;-80
2024/02/10 02:55:22;;;;;;;10.10;6.60;;;;;;;6.72;91.38;94341.00;106774;1276;22610;-80
2024/02/10 02:57:51;;;;;;;10.70;7.30;;;;;;;6.71;91.09;94339.27;106602;1276;22791;-79
2024/02/10 03:00:19;;;;;;;10.70;7.00;;;;;;;6.70;91.19;94337.70;106573;1276;22518;-79
2024/02/10 03:02:48;;;;;;;9.20;5.70;;;;;;;6.69;91.36;94341.77;106480;1276;24287;-80
2024/02/10 03:05:17;;;;;;;13.50;6.40;;;;;;;6.66;91.06;94342.36;106779;1276;24196;-80
2024/02/10 03:07:46;;;;;;;8.60;5.60;;;;;;;6.68;91.27;94345.66;106696;1276;24374;-80
2024/02/10 03:10:15;;;;;;;11.30;7.70;;;;;;;6.67;91.01;94353.52;106650;1276;25302;-80
2024/02/10 03:12:48;;;;;;;12.10;8.80;;;;;;;6.66;91.49;94352.69;106704;1275;22551;-80
2024/02/10 03:15:17;;;;;;;9.10;6.50;;;;;;;6.68;91.37;94355.43;106715;1275;23153;-80
2024/02/10 03:17:46;;;;;;;9.10;6.30;;;;;;;6.71;91.35;94356.05;106570;1275;24286;-80
2024/02/10 03:20:23;;;;;;;7.90;5.40;;;;;;;6.73;91.38;94358.64;106470;1275;22643;-80
2024/02/10 03:22:58;;;;;;;25.90;15.50;;;;;;;6.75;91.43;94362.60;106657;1275;22527;-80
2024/02/10 03:25:28;;;;;;;43.30;24.30;;;;;;;6.75;91.69;94358.59;106202;1275;627799;-80
2024/02/10 03:27:56;;;;;;;40.10;23.10;;;;;;;6.73;92.10;94357.22;106652;1266;22632;-79
2024/02/10 03:30:25;;;;;;;32.20;18.40;;;;;;;6.71;91.78;94355.86;106862;1275;22538;-79
2024/02/10 03:32:56;;;;;;;29.50;18.30;;;;;;;6.66;91.37;94354.59;106727;1275;24281;-80
2024/02/10 03:35:27;;;;;;;24.50;15.00;;;;;;;6.63;91.32;94349.78;106618;1275;23016;-80
2024/02/10 03:37:56;;;;;;;10.10;6.50;;;;;;;6.61;91.63;94346.84;106673;1275;22634;-79
2024/02/10 03:40:24;;;;;;;14.70;8.10;;;;;;;6.58;91.95;94343.61;106579;1275;22642;-79
2024/02/10 03:42:53;;;;;;;6.20;4.90;;;;;;;6.58;91.75;94348.34;106603;1275;22534;-79
2024/02/10 03:45:21;;;;;;;7.60;4.80;;;;;;;6.58;91.95;94351.29;106651;1275;22641;-80
2024/02/10 03:47:50;;;;;;;7.60;5.20;;;;;;;6.59;91.93;94346.56;106658;1275;22598;-80
2024/02/10 03:50:19;;;;;;;7.70;4.10;;;;;;;6.60;91.80;94347.92;106673;1275;25396;-79
2024/02/10 03:52:48;;;;;;;5.90;4.10;;;;;;;6.56;91.61;94352.38;106621;1275;25429;-79
2024/02/10 03:55:17;;;;;;;8.00;4.50;;;;;;;6.54;91.27;94345.09;106640;1275;26557;-79
2024/02/10 03:57:45;;;;;;;7.90;4.90;;;;;;;6.54;91.43;94343.70;106669;1275;22523;-80
2024/02/10 04:00:24;;;;;;;4.60;3.40;;;;;;;6.57;91.68;94338.73;106599;1275;22792;-80
2024/02/10 04:02:53;;;;;;;5.40;3.10;;;;;;;6.56;90.96;94333.70;106580;1275;22540;-80
2024/02/10 04:05:22;;;;;;;5.50;4.30;;;;;;;6.56;91.14;94335.62;106628;1275;25177;-80
2024/02/10 04:07:51;;;;;;;7.40;4.20;;;;;;;6.55;91.10;94335.45;106583;1272;22536;-80
2024/02/10 04:10:20;;;;;;;13.80;7.40;;;;;;;6.55;91.04;94337.23;106675;1275;22559;-80
2024/02/10 04:12:48;;;;;;;9.30;5.20;;;;;;;6.51;91.46;94338.52;106658;1275;22543;-79
2024/02/10 04:15:16;;;;;;;6.20;5.20;;;;;;;6.50;91.24;94335.23;106603;1275;22524;-80
2024/02/10 04:17:54;;;;;;;7.90;5.60;;;;;;;6.45;91.17;94334.30;106614;1272;25495;-80
2024/02/10 04:20:23;;;;;;;5.00;4.30;;;;;;;6.44;91.31;94328.21;106641;1275;25312;-80
2024/02/10 04:22:52;;;;;;;8.40;5.10;;;;;;;6.41;91.74;94319.89;106678;1275;22762;-80
2024/02/10 04:25:20;;;;;;;8.10;4.60;;;;;;;6.39;91.54;94323.07;106610;1275;22660;-80
2024/02/10 04:27:48;;;;;;;4.90;4.10;;;;;;;6.36;91.47;94322.46;106687;1275;25992;-79
2024/02/10 04:30:19;;;;;;;5.80;3.20;;;;;;;6.34;91.46;94319.00;106604;1275;22608;-80
2024/02/10 04:32:47;;;;;;;11.40;5.90;;;;;;;6.31;91.35;94320.64;107015;1275;22639;-80
2024/02/10 04:35:17;;;;;;;6.70;3.40;;;;;;;6.34;91.45;94315.52;106901;1275;22531;-79
2024/02/10 04:37:51;;;;;;;7.00;4.00;;;;;;;6.37;91.27;94313.86;106668;1275;24223;-80
2024/02/10 04:40:23;;;;;;;6.40;3.80;;;;;;;6.36;91.27;94308.13;106871;1275;25356;-80
2024/02/10 04:42:53;;;;;;;5.40;3.80;;;;;;;6.36;91.20;94310.76;106766;1271;24243;-80
2024/02/10 04:45:25;;;;;;;12.40;8.20;;;;;;;6.34;91.32;94304.88;106714;1275;25226;-80
2024/02/10 04:47:54;;;;;;;10.40;6.10;;;;;;;6.33;91.59;94309.09;106693;1275;22796;-80
2024/02/10 04:50:23;;;;;;;9.60;5.30;;;;;;;6.32;91.65;94307.52;106658;1275;23885;-80
2024/02/10 04:52:52;;;;;;;5.90;4.90;;;;;;;6.30;91.82;94310.70;106634;1275;25248;-80
2024/02/10 04:55:20;;;;;;;8.40;5.60;;;;;;;6.32;91.93;94308.22;106675;1275;24310;-80
2024/02/10 04:57:48;;;;;;;14.20;8.20;;;;;;;6.34;91.93;94301.54;106609;1275;24264;-80
2024/02/10 05:00:18;;;;;;;13.60;7.60;;;;;;;6.33;91.70;94297.04;106626;1275;25246;-80
2024/02/10 05:02:50;;;;;;;8.40;5.50;;;;;;;6.28;91.38;94298.18;106684;1275;22520;-79
2024/02/10 05:05:20;;;;;;;4.90;3.80;;;;;;;6.25;91.55;94294.41;106653;1275;24954;-80
2024/02/10 05:07:53;;;;;;;6.10;3.60;;;;;;;6.24;91.33;94296.69;106683;1275;22587;-80
2024/02/10 05:10:23;;;;;;;4.50;3.70;;;;;;;6.27;91.78;94296.63;106606;1275;22551;-80
2024/02/10 05:12:52;;;;;;;7.50;3.30;;;;;;;6.28;92.13;94290.65;106631;1275;23886;-80
2024/02/10 05:15:23;;;;;;;4.60;3.30;;;;;;;6.26;91.71;94292.46;106682;1275;25554;-80
2024/02/10 05:17:53;;;;;;;4.60;3.20;;;;;;;6.25;91.76;94298.42;106664;1275;24410;-80
2024/02/10 05:20:23;;;;;;;5.40;3.40;;;;;;;6.26;92.46;94296.32;106671;1275;22535;-80
2024/02/10 05:22:54;;;;;;;4.00;3.50;;;;;;;6.26;92.13;94300.86;106769;1275;25300;-80
2024/02/10 05:25:27;;;;;;;5.30;3.30;;;;;;;6.30;92.37;94301.81;106742;1275;23925;-79
2024/02/10 05:28:01;;;;;;;4.10;3.50;;;;;;;6.29;92.01;94302.00;106670;1271;25636;-80
2024/02/10 05:30:29;;;;;;;4.40;3.30;;;;;;;6.29;91.86;94301.65;106679;1275;22960;-80
2024/02/10 05:33:01;;;;;;;4.90;3.50;;;;;;;6.32;92.15;94292.67;106666;1275;22529;-80
2024/02/10 05:35:31;;;;;;;3.50;3.00;;;;;;;6.30;91.72;94289.40;106702;1275;22680;-79
2024/02/10 05:38:04;;;;;;;4.40;3.20;;;;;;;6.30;91.83;94287.48;106734;1275;22535;-79
2024/02/10 05:40:32;;;;;;;4.20;3.10;;;;;;;6.27;91.76;94290.86;106642;1264;22637;-80
2024/02/10 05:43:04;;;;;;;3.50;2.30;;;;;;;6.24;91.40;94292.33;106624;1275;25341;-80
2024/02/10 05:45:35;;;;;;;6.50;4.30;;;;;;;6.21;91.45;94292.74;106592;1275;25409;-80
2024/02/10 05:48:04;;;;;;;4.60;3.20;;;;;;;6.16;91.20;94292.34;106637;1275;24366;-80
2024/02/10 05:50:33;;;;;;;4.10;2.60;;;;;;;6.14;91.50;94294.14;106693;1275;22529;-80
2024/02/10 05:53:01;;;;;;;3.90;3.10;;;;;;;6.14;91.73;94299.37;106663;1264;25482;-80
2024/02/10 05:55:30;;;;;;;4.40;3.60;;;;;;;6.15;92.01;94305.45;106612;1275;22628;-80
2024/02/10 05:58:01;;;;;;;6.10;3.00;;;;;;;6.19;91.94;94314.63;106615;1275;24255;-80
2024/02/10 06:00:32;;;;;;;3.20;2.40;;;;;;;6.20;91.64;94321.07;106741;1275;22528;-79
2024/02/10 06:03:02;;;;;;;3.70;2.80;;;;;;;6.20;91.85;94324.71;106708;1263;22584;-79
2024/02/10 06:05:32;;;;;;;3.20;2.90;;;;;;;6.17;91.69;94323.56;106596;1275;22601;-80
2024/02/10 06:08:02;;;;;;;10.00;6.80;;;;;;;6.12;91.87;94323.67;106590;1275;22643;-80
2024/02/10 06:10:31;;;;;;;15.30;9.70;;;;;;;6.05;92.10;94321.02;106704;1275;25341;-79
2024/02/10 06:12:59;;;;;;;14.00;9.10;;;;;;;6.05;92.09;94320.69;106563;1276;25442;-80
2024/02/10 06:15:29;;;;;;;15.60;10.20;;;;;;;6.06;91.83;94331.48;106722;1276;22531;-80
2024/02/10 06:18:00;;;;;;;84.50;45.40;;;;;;;6.02;92.44;94336.30;106692;1276;25255;-80
2024/02/10 06:20:28;;;;;;;25.90;17.50;;;;;;;6.01;92.15;94343.98;106629;1276;25432;-80
2024/02/10 06:22:58;;;;;;;7.20;5.80;;;;;;;6.03;92.07;94339.05;106787;1276;23222;-79
2024/02/10 06:25:27;;;;;;;8.80;6.70;;;;;;;6.05;91.96;94336.76;106811;1276;22549;-80
2024/02/10 06:27:59;;;;;;;32.60;20.50;;;;;;;6.01;92.33;94343.98;106865;1276;25321;-80
2024/02/10 06:30:35;;;;;;;46.20;28.10;;;;;;;5.97;93.11;94336.58;106695;1276;25185;-80
2024/02/10 06:33:05;;;;;;;27.00;18.40;;;;;;;5.96;92.63;94333.79;106703;1276;22796;-80
2024/02/10 06:35:36;;;;;;;12.50;8.60;;;;;;;5.96;92.54;94335.53;106669;1276;22788;-80
2024/02/10 06:38:05;;;;;;;28.70;19.90;;;;;;;5.99;92.45;94337.05;106733;1276;25351;-80
2024/02/10 06:40:38;;;;;;;40.70;25.20;;;;;;;5.99;93.14;94330.05;106634;1276;25325;-80
2024/02/10 06:43:08;;;;;;;8.30;7.00;;;;;;;6.03;93.21;94326.50;106611;1276;25297;-80
2024/02/10 06:45:36;;;;;;;7.60;5.60;;;;;;;6.07;92.96;94321.17;106666;1276;22660;-80
2024/02/10 06:48:07;;;;;;;5.10;3.90;;;;;;;6.12;93.50;94317.75;106670;1276;23891;-80
2024/02/10 06:50:36;;;;;;;7.50;2.90;;;;;;;6.15;93.04;94317.16;106601;1276;22536;-80
2024/02/10 06:53:06;;;;;;;4.10;2.80;;;;;;;6.17;93.21;94310.48;106719;1276;24385;-80
2024/02/10 06:55:36;;;;;;;7.30;5.00;;;;;;;6.19;93.10;94311.48;106578;1276;22534;-80
2024/02/10 06:58:05;;;;;;;7.50;4.80;;;;;;;6.22;93.42;94313.68;106844;1276;22573;-80
2024/02/10 07:00:40;;;;;;;17.30;12.20;;;;;;;6.23;93.41;94307.18;106811;1276;22850;-79
2024/02/10 07:03:09;;;;;;;30.60;19.80;;;;;;;6.26;93.28;94305.74;106647;1276;22612;-80
2024/02/10 07:05:39;;;;;;;49.00;27.90;;;;;;;6.28;93.42;94305.67;106628;1276;25361;-80
2024/02/10 07:08:11;;;;;;;47.30;26.80;;;;;;;6.34;93.24;94307.66;106688;1276;22537;-80
2024/02/10 07:10:39;;;;;;;27.10;16.40;;;;;;;6.40;93.16;94313.80;106576;1267;22555;-80
2024/02/10 07:13:08;;;;;;;15.00;9.20;;;;;;;6.45;93.13;94311.92;106706;1275;22733;-80
2024/02/10 07:15:37;;;;;;;11.70;9.00;;;;;;;6.49;92.92;94309.75;106736;1275;22532;-80
2024/02/10 07:18:06;;;;;;;24.40;15.80;;;;;;;6.53;93.01;94301.62;106596;1275;25540;-80
2024/02/10 07:20:36;;;;;;;29.60;20.20;;;;;;;6.56;93.25;94299.10;106613;1275;25337;-80
2024/02/10 07:23:04;;;;;;;38.40;26.80;;;;;;;6.57;93.47;94294.52;106607;1275;25286;-80
2024/02/10 07:25:38;;;;;;;40.20;29.30;;;;;;;6.62;93.00;94298.09;106629;1275;24346;-80
2024/02/10 07:28:08;;;;;;;33.40;29.20;;;;;;;6.64;92.90;94291.03;106769;1275;24315;-80
2024/02/10 07:30:38;;;;;;;17.30;14.10;;;;;;;6.68;92.99;94290.06;106631;1275;22542;-80
2024/02/10 07:33:09;;;;;;;28.20;24.70;;;;;;;6.71;94.47;94287.55;106942;1275;22530;-80
2024/02/10 07:35:40;;;;;;;;;;;;;;;6.76;93.80;94285.16;106796;1275;22532;-80
2024/02/10 07:38:09;;;;;;;4.80;4.00;;;;;;;6.80;93.89;94286.11;106669;1275;22612;-80
2024/02/10 07:40:38;;;;;;;5.70;4.00;;;;;;;6.90;93.53;94288.13;106647;1275;24373;-80
2024/02/10 07:43:12;;;;;;;4.50;4.00;;;;;;;7.02;93.06;94297.27;106665;1275;22789;-81
2024/02/10 07:45:43;;;;;;;2.80;2.30;;;;;;;7.13;92.17;94290.69;106670;1275;25642;-80
2024/02/10 07:48:12;;;;;;;2.50;2.30;;;;;;;7.24;91.62;94279.56;106601;1275;22581;-80
2024/02/10 07:50:41;;;;;;;5.60;4.60;;;;;;;7.33;91.40;94272.31;106655;1275;25514;-80
2024/02/10 07:53:12;;;;;;;1.70;1.00;;;;;;;7.41;91.31;94264.59;106658;1275;24232;-80
2024/02/10 07:55:45;;;;;;;1.60;1.00;;;;;;;7.46;91.52;94268.82;106688;1275;22550;-80
2024/02/10 07:58:15;;;;;;;2.00;1.50;;;;;;;7.49;91.38;94274.34;106611;1275;22637;-80
2024/02/10 08:00:44;;;;;;;1.30;1.00;;;;;;;7.51;90.75;94269.70;106678;1275;22531;-80
2024/02/10 08:03:13;;;;;;;1.70;1.30;;;;;;;7.58;89.86;94268.29;106591;1275;22850;-80
2024/02/10 08:05:42;;;;;;;4.60;3.30;;;;;;;7.68;88.40;94263.81;106660;1275;24271;-81
2024/02/10 08:08:11;;;;;;;2.60;1.90;;;;;;;7.77;87.45;94258.11;106647;1275;24335;-80
2024/02/10 08:10:39;;;;;;;11.90;8.70;;;;;;;7.86;86.74;94248.75;106612;1275;22536;-81
2024/02/10 08:13:08;;;;;;;4.60;3.70;;;;;;;7.93;86.67;94241.02;106591;1275;24238;-81
2024/02/10 08:15:37;;;;;;;14.40;10.90;;;;;;;8.00;86.14;94240.81;106690;1275;25568;-81
2024/02/10 08:18:08;;;;;;;14.80;9.10;;;;;;;8.06;85.84;94244.14;106676;1275;25501;-81
2024/02/10 08:20:40;;;;;;;9.20;6.20;;;;;;;8.09;85.64;94245.45;106688;1275;22979;-81
2024/02/10 08:23:12;;;;;;;4.30;2.80;;;;;;;8.16;85.05;94248.22;106619;1275;22557;-81
2024/02/10 08:25:44;;;;;;;4.30;3.10;;;;;;;8.28;83.44;94243.46;106909;1275;25604;-81
2024/02/10 08:28:14;;;;;;;5.90;3.40;;;;;;;8.40;82.23;94246.25;106626;1275;25377;-81
2024/02/10 08:30:44;;;;;;;7.90;5.90;;;;;;;8.48;82.81;94248.98;106632;1275;25313;-81
2024/02/10 08:33:13;;;;;;;3.10;2.10;;;;;;;8.53;82.32;94254.60;106626;1275;24392;-81
2024/02/10 08:35:42;;;;;;;3.60;2.50;;;;;;;8.63;81.68;94253.94;106659;1275;25539;-81
2024/02/10 08:38:10;;;;;;;5.90;4.20;;;;;;;8.74;80.74;94246.23;106672;1275;24518;-81
2024/02/10 08:40:39;;;;;;;17.40;9.50;;;;;;;8.84;79.82;94245.88;106585;1265;25362;-81
2024/02/10 08:43:10;;;;;;;9.70;5.90;;;;;;;8.96;81.12;94247.77;106631;1275;22670;-81
2024/02/10 08:45:40;;;;;;;12.40;7.00;;;;;;;9.05;79.84;94245.16;106939;1275;22527;-81
2024/02/10 08:48:10;;;;;;;11.30;6.60;;;;;;;9.16;78.36;94246.73;106658;1275;22537;-82
2024/02/10 08:50:41;;;;;;;9.30;5.30;;;;;;;9.26;79.04;94253.94;106657;1275;25504;-81
2024/02/10 08:53:11;;;;;;;10.70;4.30;;;;;;;9.33;78.54;94254.73;106650;1259;22528;-81
2024/02/10 08:55:40;;;;;;;8.40;4.00;;;;;;;9.40;78.54;94252.02;106627;1275;23001;-81
2024/02/10 08:58:09;;;;;;;15.50;9.40;;;;;;;9.47;78.04;94248.45;106600;1270;25293;-81
2024/02/10 09:00:38;;;;;;;13.20;7.90;;;;;;;9.54;78.81;94255.02;106623;1275;25660;-81
2024/02/10 09:03:06;;;;;;;6.30;2.50;;;;;;;9.64;78.89;94263.81;106576;1270;22622;-81
2024/02/10 09:05:35;;;;;;;1.70;1.60;;;;;;;9.71;77.51;94264.25;106624;1260;24550;-81
2024/02/10 09:08:03;;;;;;;5.20;2.40;;;;;;;9.79;76.98;94262.36;106609;1275;22694;-81
2024/02/10 09:10:32;;;;;;;7.60;4.70;;;;;;;9.92;76.68;94256.27;106664;1275;22604;-81
2024/02/10 09:13:03;;;;;;;5.90;3.20;;;;;;;10.07;75.95;94260.08;106674;1275;22605;-80
2024/02/10 09:15:33;;;;;;;18.10;7.90;;;;;;;10.19;75.54;94256.46;106595;1275;22597;-81
2024/02/10 09:18:01;;;;;;;15.70;10.20;;;;;;;10.31;75.67;94256.20;106591;1269;22549;-80
2024/02/10 09:20:32;;;;;;;16.10;9.80;;;;;;;10.44;74.34;94248.69;106630;1275;22656;-80
2024/02/10 09:23:02;;;;;;;14.70;7.90;;;;;;;10.61;74.12;94245.19;106620;1275;25372;-80
2024/02/10 09:25:36;;;;;;;11.30;8.30;;;;;;;10.78;75.34;94246.79;106642;1275;25252;-80
2024/02/10 09:28:05;;;;;;;12.40;6.80;;;;;;;10.87;75.57;94240.26;106658;1275;24282;-80
2024/02/10 09:30:35;;;;;;;6.60;2.00;;;;;;;10.96;70.24;94247.08;106679;1253;22542;-80
2024/02/10 09:33:07;;;;;;;6.80;5.00;;;;;;;11.13;66.81;94244.81;106619;1275;24371;-80
2024/02/10 09:35:39;;;;;;;7.60;2.20;;;;;;;11.31;66.30;94242.63;106665;1275;22490;-80
2024/02/10 09:38:12;;;;;;;2.10;1.40;;;;;;;11.57;63.55;94245.73;106632;1275;22631;-80
2024/02/10 09:40:42;;;;;;;4.30;2.00;;;;;;;11.77;61.76;94244.14;106641;1275;22586;-79
2024/02/10 09:43:13;;;;;;;5.10;2.00;;;;;;;11.87;61.29;94230.31;106588;1275;25358;-81
2024/02/10 09:45:45;;;;;;;4.10;1.80;;;;;;;11.95;60.69;94230.16;106636;1275;22667;-81
2024/02/10 09:48:19;;;;;;;3.10;2.10;;;;;;;11.99;60.44;94235.25;106632;1275;22535;-79
2024/02/10 09:50:48;;;;;;;5.10;2.50;;;;;;;12.04;60.04;94233.95;106650;1275;24282;-80
2024/02/10 09:53:17;;;;;;;5.80;2.20;;;;;;;12.06;59.48;94229.81;106635;1275;22524;-79
2024/02/10 09:55:46;;;;;;;5.50;2.10;;;;;;;12.13;59.84;94236.36;106592;1275;25410;-81
2024/02/10 09:58:16;;;;;;;4.50;2.00;;;;;;;12.19;57.88;94231.34;106613;1275;25407;-79
2024/02/10 10:00:47;;;;;;;4.20;1.80;;;;;;;12.33;57.38;94231.73;106677;1275;22758;-79
2024/02/10 10:03:16;;;;;;;5.70;2.00;;;;;;;12.48;58.28;94226.42;106684;1275;22566;-80
2024/02/10 10:05:47;;;;;;;3.00;2.10;;;;;;;12.62;56.57;94227.86;106596;1275;25481;-79
2024/02/10 10:08:22;;;;;;;5.00;1.70;;;;;;;12.75;55.42;94223.89;106678;1275;22533;-79
2024/02/10 10:10:51;;;;;;;5.50;1.70;;;;;;;12.91;55.60;94226.31;106639;1275;25365;-81
2024/02/10 10:13:19;;;;;;;5.00;1.70;;;;;;;13.09;55.52;94209.48;106626;1276;22516;-80
2024/02/10 10:15:49;;;;;;;2.20;1.10;;;;;;;13.08;54.67;94213.07;106725;1276;22523;-80
2024/02/10 10:18:19;;;;;;;2.90;1.40;;;;;;;12.95;53.66;94207.38;106643;1261;22770;-80
2024/02/10 10:20:49;;;;;;;6.10;1.70;;;;;;;12.82;54.46;94222.14;106675;1276;22537;-80
2024/02/10 10:23:18;;;;;;;4.80;1.90;;;;;;;12.71;53.71;94220.02;106542;1276;22549;-80
2024/02/10 10:25:47;;;;;;;5.40;2.20;;;;;;;12.60;54.68;94217.38;106559;1276;22537;-78
2024/02/10 10:28:17;;;;;;;3.60;1.70;;;;;;;12.54;54.30;94226.14;106625;1276;23243;-80
2024/02/10 10:30:47;;;;;;;2.20;1.20;;;;;;;12.51;54.40;94228.95;106851;1276;25357;-79
2024/02/10 10:33:20;;;;;;;5.20;2.00;;;;;;;12.45;55.03;94238.40;106569;1276;22531;-80
2024/02/10 10:35:54;;;;;;;5.70;2.00;;;;;;;12.41;55.17;94238.44;106589;1276;24231;-80
2024/02/10 10:38:23;;;;;;;4.00;1.60;;;;;;;12.36;54.37;94236.35;106578;1276;25620;-79
2024/02/10 10:40:52;;;;;;;3.30;1.60;;;;;;;12.32;54.03;94229.48;106553;1276;25452;-79
2024/02/10 10:43:23;;;;;;;5.30;1.80;;;;;;;12.32;54.14;94220.47;106625;1276;22518;-79
2024/02/10 10:45:52;;;;;;;4.60;1.90;;;;;;;12.36;54.82;94215.20;106718;1276;22541;-79
2024/02/10 10:48:20;;;;;;;7.10;2.70;;;;;;;12.41;54.50;94219.90;106562;1276;25449;-79
2024/02/10 10:50:56;;;;;;;2.90;1.70;;;;;;;12.52;54.06;94221.48;106609;1276;24377;-79
2024/02/10 10:53:27;;;;;;;7.90;2.10;;;;;;;12.60;53.40;94220.57;106572;1276;22534;-78
2024/02/10 10:56:00;;;;;;;5.60;1.70;;;;;;;12.68;53.50;94219.45;106622;1276;22632;-79
2024/02/10 10:58:41;;;;;;;3.70;1.80;;;;;;;12.75;54.21;94208.86;106714;1276;22668;-78
2024/02/10 11:01:11;;;;;;;4.10;2.10;;;;;;;12.84;53.52;94212.67;106711;1276;25295;-78
2024/02/10 11:03:45;;;;;;;4.10;1.70;;;;;;;13.14;53.62;94209.78;106595;1276;26682;-79
2024/02/10 11:06:14;;;;;;;3.40;1.80;;;;;;;13.45;51.89;94210.50;106807;1276;24479;-79
2024/02/10 11:08:45;;;;;;;6.10;2.10;;;;;;;13.81;51.87;94205.80;106669;1265;24702;-79
2024/02/10 11:11:14;;;;;;;3.50;1.40;;;;;;;14.22;50.07;94201.45;106560;1276;22530;-80
2024/02/10 11:13:43;;;;;;;4.90;1.50;;;;;;;14.49;49.22;94205.27;106684;1275;25316;-81
2024/02/10 11:16:13;;;;;;;5.80;1.90;;;;;;;14.88;48.56;94202.19;106609;1275;24534;-79
2024/02/10 11:18:44;;;;;;;4.60;1.80;;;;;;;15.11;48.01;94207.23;106703;1275;22523;-80
2024/02/10 11:21:18;;;;;;;4.30;1.80;;;;;;;15.13;48.12;94202.90;107043;1275;22540;-79
2024/02/10 11:24:08;;;;;;;5.20;1.80;;;;;;;15.10;48.07;94212.77;106593;1275;22520;-78
2024/02/10 11:26:41;;;;;;;5.40;1.50;;;;;;;15.05;47.15;94205.12;106632;1265;22710;-79
2024/02/10 11:29:10;;;;;;;;;;;;;;;15.22;47.13;94206.30;106724;1275;22587;-78
2024/02/10 11:31:39;;;;;;;6.80;1.70;;;;;;;15.46;47.19;94205.55;106744;1275;22543;-78
2024/02/10 11:34:18;;;;;;;8.80;2.00;;;;;;;15.96;47.09;94200.73;106695;1275;25301;-80
2024/02/10 11:36:53;;;;;;;6.10;1.70;;;;;;;16.54;45.57;94196.38;106619;1275;22588;-80
2024/02/10 11:39:24;;;;;;;6.20;1.70;;;;;;;16.86;42.76;94197.36;106615;1275;22526;-79